YWLM

Newcastle Airport (New South Wales)

Airport
ICAO code
YWLM
IATA Code
NTL
Summary
ICAO Region
APAC
ICAO Territory
Location

Port Stephens, New South Wales

Serving
Newcastle
Elevation
30 ft
Coordinates
32° 55' 36" S , 151° 46' 44" E
KCC
Metar
Observation
YWLM 021300Z AUTO 14005KT 9999 // SCT027 17/13 Q1017 RF00.0/000.0
Station
WILLIAMTOWN ARP
Date/Time
2022-12-02 13:00:00
Wind direction
140°
Wind speed
05 kts
Lowest cloud amount
scattered clouds
Temperature
17°C
Dew point
13°C
Humidity
77%
QNH
1017 hPa
Weather condition
n/a

Airport located 8nm north of Newcastle, New South Wales, Australia. The runway is shared with RAAF Williamtown, home to Australia's Air Combat Group.

 

Airport map

Aerial View

SKYbrary Partners:

Safety knowledge contributed by: